createdAt,value
2022-10-20T00:02:26.664Z,22.25
2022-10-20T00:04:55.761Z,24.95
2022-10-20T00:07:23.564Z,27.33
2022-10-20T00:09:51.603Z,21.77
2022-10-20T00:12:20.068Z,25.17
2022-10-20T00:14:47.748Z,29.63
2022-10-20T00:17:15.415Z,22.80
2022-10-20T00:19:43.263Z,27.63
2022-10-20T00:22:12.121Z,21.55
2022-10-20T00:24:39.760Z,30.60
2022-10-20T00:27:07.429Z,21.30
2022-10-20T00:29:35.004Z,27.50
2022-10-20T00:32:02.818Z,20.50
2022-10-20T00:34:30.666Z,20.35
2022-10-20T00:36:58.540Z,20.80
2022-10-20T00:39:27.462Z,21.02
2022-10-20T00:41:55.126Z,19.77
2022-10-20T00:44:33.528Z,20.75
2022-10-20T00:47:01.227Z,19.42
2022-10-20T00:49:29.303Z,18.38
2022-10-20T00:51:56.968Z,16.65
2022-10-20T00:54:26.352Z,22.40
2022-10-20T00:56:56.798Z,20.85
2022-10-20T00:59:28.207Z,20.17
2022-10-20T01:01:56.037Z,18.08
2022-10-20T01:04:24.307Z,28.85
2022-10-20T01:06:51.987Z,16.85
2022-10-20T01:09:19.737Z,20.48
2022-10-20T01:11:53.769Z,21.85
2022-10-20T01:14:29.044Z,20.73
2022-10-20T01:16:59.952Z,27.63
2022-10-20T01:19:42.317Z,22.13
2022-10-20T01:22:17.732Z,17.75
2022-10-20T01:24:49.347Z,18.65
2022-10-20T01:27:27.512Z,24.13
2022-10-20T01:29:58.746Z,24.90
2022-10-20T01:32:30.847Z,28.65
2022-10-20T01:35:04.324Z,22.95
2022-10-20T01:37:52.333Z,24.08
2022-10-20T01:40:23.216Z,19.90
2022-10-20T01:42:53.106Z,21.38
2022-10-20T01:45:23.290Z,23.23
2022-10-20T01:47:52.718Z,19.20
2022-10-20T01:50:20.838Z,21.17
2022-10-20T01:52:48.544Z,25.90
2022-10-20T01:55:17.211Z,24.48
2022-10-20T01:57:50.606Z,20.75
2022-10-20T02:00:18.734Z,21.52
2022-10-20T02:02:56.524Z,19.20
2022-10-20T02:05:30.771Z,19.75
2022-10-20T02:08:01.563Z,20.67
2022-10-20T02:10:33.624Z,23.80
2022-10-20T02:13:03.483Z,18.58
2022-10-20T02:15:32.859Z,18.63
2022-10-20T02:18:04.332Z,19.25
2022-10-20T02:20:32.750Z,23.90
2022-10-20T02:23:01.496Z,21.15
2022-10-20T02:25:30.505Z,19.55
2022-10-20T02:30:27.828Z,17.33
2022-10-20T02:32:55.490Z,22.67
2022-10-20T02:35:27.744Z,18.60
2022-10-20T02:37:55.481Z,13.77
2022-10-20T02:40:23.256Z,18.95
2022-10-20T02:42:50.915Z,19.67
2022-10-20T02:45:18.635Z,19.10
2022-10-20T02:47:46.385Z,23.40
2022-10-20T02:50:14.264Z,18.13
2022-10-20T02:52:43.146Z,26.77
2022-10-20T02:55:10.921Z,28.17
2022-10-20T02:57:39.088Z,26.38
2022-10-20T03:00:07.574Z,23.45
2022-10-20T03:02:35.361Z,37.20
2022-10-20T03:05:02.971Z,25.83
2022-10-20T03:07:30.626Z,29.90
2022-10-20T03:09:59.542Z,27.20
2022-10-20T03:12:30.100Z,29.25
2022-10-20T03:14:59.894Z,36.88
2022-10-20T03:17:27.505Z,28.83
2022-10-20T03:19:55.144Z,40.47
2022-10-20T03:22:22.851Z,29.15
2022-10-20T03:24:50.580Z,35.30
2022-10-20T03:27:19.583Z,24.45
2022-10-20T03:29:47.209Z,28.88
2022-10-20T03:32:14.974Z,24.08
2022-10-20T03:34:42.578Z,21.35
2022-10-20T03:37:10.239Z,28.77
2022-10-20T03:39:37.900Z,25.02
2022-10-20T03:42:05.555Z,23.33
2022-10-20T03:44:34.501Z,28.25
2022-10-20T03:47:02.546Z,23.52
2022-10-20T03:49:31.513Z,27.95
2022-10-20T03:51:59.176Z,27.17
2022-10-20T03:54:26.926Z,27.25
2022-10-20T03:56:54.627Z,23.80
2022-10-20T03:59:24.442Z,21.80
2022-10-20T04:01:55.869Z,21.17
2022-10-20T04:04:23.565Z,25.50
2022-10-20T04:06:51.284Z,25.02
2022-10-20T04:09:19.214Z,24.10
2022-10-20T04:11:47.106Z,20.13
2022-10-20T04:14:14.855Z,21.83
2022-10-20T04:16:42.951Z,36.53
2022-10-20T04:19:12.348Z,24.25
2022-10-20T04:21:39.989Z,25.83
2022-10-20T04:24:07.814Z,22.33
2022-10-20T04:26:35.492Z,22.33
2022-10-20T04:29:03.564Z,30.85
2022-10-20T04:31:31.174Z,23.13
2022-10-20T04:33:58.861Z,27.90
2022-10-20T04:36:27.844Z,20.83
2022-10-20T04:38:55.489Z,17.98
2022-10-20T04:41:23.195Z,21.35
2022-10-20T04:43:51.161Z,20.83
2022-10-20T04:46:18.883Z,21.90
2022-10-20T04:48:46.661Z,18.48
2022-10-20T04:51:15.721Z,23.83
2022-10-20T04:53:44.644Z,26.90
2022-10-20T04:56:13.892Z,21.13
2022-10-20T04:58:41.552Z,25.33
2022-10-20T05:01:10.060Z,28.35
2022-10-20T05:03:37.758Z,20.20
2022-10-20T05:06:09.099Z,26.58
2022-10-20T05:08:37.080Z,26.00
2022-10-20T05:11:06.480Z,28.08
2022-10-20T05:13:34.123Z,26.40
2022-10-20T05:16:02.632Z,28.23
2022-10-20T05:18:30.303Z,26.50
2022-10-20T05:21:08.474Z,36.05
2022-10-20T05:23:37.091Z,23.80
2022-10-20T05:26:06.901Z,24.08
2022-10-20T05:28:34.594Z,22.98
2022-10-20T05:31:03.487Z,30.92
2022-10-20T05:33:31.236Z,19.15
2022-10-20T05:35:58.936Z,29.75
2022-10-20T05:38:26.589Z,18.17
2022-10-20T05:40:54.256Z,21.05
2022-10-20T05:43:23.164Z,23.20
2022-10-20T05:45:54.470Z,26.65
2022-10-20T05:48:22.084Z,28.50
2022-10-20T05:50:49.778Z,25.65
2022-10-20T05:53:17.485Z,24.25
2022-10-20T05:55:45.123Z,43.42
2022-10-20T05:58:12.967Z,33.88
2022-10-20T06:00:51.771Z,23.83
2022-10-20T06:03:21.899Z,25.17
2022-10-20T06:05:57.599Z,22.65
2022-10-20T06:08:25.363Z,19.48
2022-10-20T06:10:53.018Z,24.75
2022-10-20T06:13:20.715Z,20.42
2022-10-20T06:15:49.695Z,20.40
2022-10-20T06:18:17.362Z,17.50
2022-10-20T06:20:45.021Z,27.77
2022-10-20T06:23:12.656Z,28.45
2022-10-20T06:25:40.316Z,35.90
2022-10-20T06:28:07.974Z,21.73
2022-10-20T06:30:35.596Z,30.25
2022-10-20T06:33:04.576Z,26.65
2022-10-20T06:35:32.244Z,25.15
2022-10-20T06:37:59.922Z,19.10
2022-10-20T06:40:27.575Z,21.70
2022-10-20T06:45:23.825Z,17.77
2022-10-20T06:47:51.503Z,22.77
2022-10-20T06:50:20.583Z,27.92
2022-10-20T06:52:48.291Z,33.38
2022-10-20T06:55:15.979Z,23.73
2022-10-20T06:57:43.646Z,28.13
2022-10-20T07:00:11.550Z,20.80
2022-10-20T07:02:39.515Z,15.90
2022-10-20T07:05:07.481Z,23.88
2022-10-20T07:10:04.159Z,21.02
2022-10-20T07:12:31.763Z,26.88
2022-10-20T07:14:59.485Z,19.30
2022-10-20T07:17:27.105Z,22.67
2022-10-20T07:19:54.767Z,17.60
2022-10-20T07:22:22.410Z,20.08
2022-10-20T07:24:51.403Z,33.90
2022-10-20T07:27:19.069Z,24.23
2022-10-20T07:29:46.729Z,19.55
2022-10-20T07:32:14.361Z,25.73
2022-10-20T07:34:42.159Z,30.25
2022-10-20T07:37:09.813Z,21.98
2022-10-20T07:39:37.447Z,37.25
2022-10-20T07:42:06.352Z,21.25
2022-10-20T07:44:34.051Z,18.40
2022-10-20T07:47:01.685Z,23.10
2022-10-20T07:49:45.361Z,17.67
2022-10-20T07:52:13.188Z,27.30
2022-10-20T07:54:40.855Z,25.77
2022-10-20T07:57:09.826Z,27.52
2022-10-20T07:59:37.438Z,24.80
2022-10-20T08:02:05.144Z,29.48
2022-10-20T08:04:32.850Z,27.60
2022-10-20T08:07:00.981Z,27.05
2022-10-20T08:09:28.837Z,24.15
2022-10-20T08:11:56.662Z,25.50
2022-10-20T08:14:27.666Z,22.63
2022-10-20T08:16:58.041Z,22.90
2022-10-20T08:19:26.122Z,32.33
2022-10-20T08:21:53.914Z,30.95
2022-10-20T08:24:21.594Z,22.33
2022-10-20T08:26:49.228Z,33.42
2022-10-20T08:29:16.879Z,28.02
2022-10-20T08:31:45.887Z,28.40
2022-10-20T08:34:13.652Z,24.73
2022-10-20T08:36:41.364Z,22.92
2022-10-20T08:39:09.023Z,25.83
2022-10-20T08:42:02.661Z,28.42
2022-10-20T08:44:27.163Z,27.20
2022-10-20T08:46:56.528Z,28.27
2022-10-20T08:49:27.077Z,33.10
2022-10-20T08:51:54.692Z,24.30
2022-10-20T08:54:22.426Z,28.85
2022-10-20T08:56:50.109Z,31.23
2022-10-20T08:59:22.759Z,26.17
2022-10-20T09:01:50.500Z,28.33
2022-10-20T09:04:20.268Z,24.27
2022-10-20T09:06:49.827Z,32.80
2022-10-20T09:09:18.762Z,22.70
2022-10-20T09:11:46.617Z,25.95
2022-10-20T09:14:14.510Z,22.80
2022-10-20T09:16:59.321Z,27.08
2022-10-20T09:19:29.403Z,21.27
2022-10-20T09:21:58.496Z,24.40
2022-10-20T09:24:30.066Z,29.40
2022-10-20T09:26:59.510Z,26.25
2022-10-20T09:29:36.163Z,26.50
2022-10-20T09:32:22.495Z,25.65
2022-10-20T09:34:53.181Z,34.05
2022-10-20T09:37:20.934Z,29.48
2022-10-20T09:39:55.406Z,23.58
2022-10-20T09:42:24.789Z,25.20
2022-10-20T09:44:54.203Z,26.30
2022-10-20T09:47:23.229Z,25.58
2022-10-20T09:50:00.022Z,24.17
2022-10-20T09:52:34.287Z,21.50
2022-10-20T09:55:03.967Z,27.73
2022-10-20T09:57:32.000Z,28.75
2022-10-20T10:00:04.531Z,22.10
2022-10-20T10:02:36.684Z,23.08
2022-10-20T10:05:20.117Z,20.58
2022-10-20T10:07:59.909Z,30.08
2022-10-20T10:10:28.515Z,22.60
2022-10-20T10:12:57.934Z,21.27
2022-10-20T10:15:27.585Z,31.55
2022-10-20T10:17:55.960Z,20.98
2022-10-20T10:20:33.997Z,18.73
2022-10-20T10:23:17.166Z,21.17
2022-10-20T10:25:44.918Z,26.52
2022-10-20T10:28:21.255Z,19.27
2022-10-20T10:30:50.175Z,20.25
2022-10-20T10:33:24.848Z,31.10
2022-10-20T10:35:53.164Z,27.73
2022-10-20T10:38:23.190Z,25.35
2022-10-20T10:40:54.909Z,23.85
2022-10-20T10:43:30.458Z,30.52
2022-10-20T10:45:58.934Z,25.70
2022-10-20T10:48:35.974Z,31.27
2022-10-20T10:51:05.689Z,27.52
2022-10-20T10:53:40.554Z,26.38
2022-10-20T10:56:14.494Z,32.20
2022-10-20T10:58:46.213Z,24.52
2022-10-20T11:01:26.844Z,25.33
2022-10-20T11:04:04.203Z,25.23
2022-10-20T11:06:37.649Z,25.52
2022-10-20T11:09:13.024Z,27.02
2022-10-20T11:11:44.384Z,25.17
2022-10-20T11:14:16.408Z,26.60
2022-10-20T11:16:48.662Z,29.08
2022-10-20T11:19:26.876Z,23.77
2022-10-20T11:21:59.929Z,36.85
2022-10-20T11:24:38.270Z,22.92
2022-10-20T11:27:10.734Z,28.67
2022-10-20T11:29:41.047Z,33.88
2022-10-20T11:32:11.830Z,30.10
2022-10-20T11:34:41.783Z,28.98
2022-10-20T11:37:16.195Z,31.00
2022-10-20T11:39:46.624Z,28.60
2022-10-20T11:42:21.572Z,27.00
2022-10-20T11:44:49.742Z,28.85
2022-10-20T11:47:19.737Z,30.10
2022-10-20T11:49:47.399Z,26.67
2022-10-20T11:52:25.716Z,30.73
2022-10-20T11:55:00.328Z,25.65
2022-10-20T11:57:33.784Z,33.20
2022-10-20T12:00:06.733Z,23.60
2022-10-20T12:02:49.273Z,26.88
2022-10-20T12:05:24.449Z,23.73
2022-10-20T12:08:17.850Z,27.50
2022-10-20T12:10:54.668Z,23.70
2022-10-20T12:13:31.071Z,26.63
2022-10-20T12:15:59.580Z,25.20
2022-10-20T12:18:28.651Z,31.90
2022-10-20T12:20:59.679Z,24.38
2022-10-20T12:23:38.197Z,26.27
2022-10-20T12:26:25.757Z,27.50
2022-10-20T12:28:54.803Z,26.83
2022-10-20T12:31:22.526Z,26.48
2022-10-20T12:34:03.653Z,25.35
2022-10-20T12:36:36.059Z,38.97
2022-10-20T12:39:15.924Z,27.23
2022-10-20T12:41:46.300Z,22.30
2022-10-20T12:44:18.430Z,22.67
2022-10-20T12:46:53.219Z,22.75
2022-10-20T12:49:23.706Z,13.45
2022-10-20T12:51:52.579Z,17.83
2022-10-20T12:54:22.236Z,18.15
2022-10-20T12:56:50.386Z,22.50
2022-10-20T12:59:23.571Z,15.57
2022-10-20T13:02:05.327Z,21.75
2022-10-20T13:04:45.410Z,19.00
2022-10-20T13:07:13.302Z,21.88
2022-10-20T13:09:55.796Z,17.67
2022-10-20T13:12:26.740Z,17.65
2022-10-20T13:14:57.130Z,20.80
2022-10-20T13:17:39.138Z,15.65
2022-10-20T13:20:17.396Z,18.23
2022-10-20T13:22:46.826Z,16.27
2022-10-20T13:25:17.792Z,22.45
2022-10-20T13:27:45.470Z,16.77
2022-10-20T13:30:20.999Z,20.15
2022-10-20T13:33:18.052Z,16.48
2022-10-20T13:35:43.235Z,13.75
2022-10-20T13:38:16.684Z,19.95
2022-10-20T13:40:49.768Z,23.10
2022-10-20T13:43:24.945Z,24.33
2022-10-20T13:46:03.270Z,26.73
2022-10-20T13:48:37.770Z,23.73
2022-10-20T13:51:06.816Z,27.13
2022-10-20T13:53:37.168Z,24.45
2022-10-20T13:56:06.583Z,21.98
2022-10-20T13:58:34.866Z,22.92
2022-10-20T14:01:06.075Z,19.90
2022-10-20T14:03:40.939Z,25.38
2022-10-20T14:06:29.649Z,28.33
2022-10-20T14:08:58.274Z,23.30
2022-10-20T14:11:26.654Z,20.58
2022-10-20T14:13:54.382Z,24.15
2022-10-20T14:16:24.508Z,24.17
2022-10-20T14:19:01.032Z,24.67
2022-10-20T14:21:28.819Z,14.70
2022-10-20T14:23:58.012Z,20.55
2022-10-20T14:26:25.950Z,26.25
2022-10-20T14:28:53.901Z,22.10
2022-10-20T14:31:23.720Z,25.20
2022-10-20T14:33:53.277Z,17.23
2022-10-20T14:36:21.843Z,25.48
2022-10-20T14:38:50.325Z,23.05
2022-10-20T14:41:24.989Z,17.33
2022-10-20T14:43:55.437Z,21.80
2022-10-20T14:46:29.174Z,22.23
2022-10-20T14:48:57.290Z,19.63
2022-10-20T14:51:28.288Z,17.50
2022-10-20T14:54:10.788Z,15.52
2022-10-20T14:56:43.881Z,16.88
2022-10-20T14:59:15.022Z,27.25
2022-10-20T15:01:56.392Z,24.67
2022-10-20T15:04:24.731Z,18.92
2022-10-20T15:07:02.820Z,20.50
2022-10-20T15:09:32.515Z,18.80
2022-10-20T15:12:05.158Z,19.48
2022-10-20T15:14:32.860Z,24.33
2022-10-20T15:17:01.882Z,20.58
2022-10-20T15:19:32.022Z,25.17
2022-10-20T15:22:01.509Z,20.55
2022-10-20T15:24:29.884Z,19.80
2022-10-20T15:26:59.022Z,27.95
2022-10-20T15:29:27.036Z,23.92
2022-10-20T15:31:55.236Z,20.02
2022-10-20T15:34:25.479Z,25.27
2022-10-20T15:36:53.198Z,21.80
2022-10-20T15:39:20.887Z,19.92
2022-10-20T15:41:51.519Z,25.67
2022-10-20T15:44:22.367Z,19.17
2022-10-20T15:46:52.397Z,20.80
2022-10-20T15:49:20.546Z,27.60
2022-10-20T15:51:50.387Z,21.40
2022-10-20T15:54:20.193Z,18.17
2022-10-20T15:56:47.934Z,21.75
2022-10-20T15:59:15.807Z,20.33
2022-10-20T16:01:43.480Z,20.10
2022-10-20T16:04:17.700Z,26.98
2022-10-20T16:06:45.384Z,19.52
2022-10-20T16:09:16.276Z,18.23
2022-10-20T16:11:44.348Z,20.23
2022-10-20T16:14:12.030Z,19.48
2022-10-20T16:16:40.254Z,21.25
2022-10-20T16:19:08.198Z,25.25
2022-10-20T16:21:36.753Z,28.10
2022-10-20T16:24:05.051Z,24.58
2022-10-20T16:26:34.188Z,23.25
2022-10-20T16:29:02.806Z,18.85
2022-10-20T16:31:31.329Z,22.13
2022-10-20T16:33:59.859Z,20.92
2022-10-20T16:36:27.786Z,19.38
2022-10-20T16:38:55.807Z,25.73
2022-10-20T16:41:23.568Z,24.45
2022-10-20T16:43:55.397Z,17.58
2022-10-20T16:46:25.279Z,19.65
2022-10-20T16:48:53.203Z,28.83
2022-10-20T16:51:20.885Z,19.95
2022-10-20T16:53:49.763Z,19.05
2022-10-20T16:56:20.067Z,34.90
2022-10-20T16:58:49.209Z,29.95
2022-10-20T17:01:20.071Z,28.17
2022-10-20T17:03:48.701Z,31.13
2022-10-20T17:06:17.279Z,22.13
2022-10-20T17:08:45.462Z,26.88
2022-10-20T17:11:14.480Z,30.15
2022-10-20T17:13:42.598Z,27.40
2022-10-20T17:16:11.763Z,21.33
2022-10-20T17:18:40.691Z,20.40
2022-10-20T17:21:08.640Z,16.73
2022-10-20T17:23:40.215Z,27.63
2022-10-20T17:26:12.028Z,21.27
2022-10-20T17:28:39.967Z,20.90
2022-10-20T17:31:08.517Z,20.50
2022-10-20T17:33:37.448Z,27.42
2022-10-20T17:36:07.678Z,23.73
2022-10-20T17:38:36.398Z,23.95
2022-10-20T17:41:04.626Z,27.63
2022-10-20T17:43:32.386Z,21.58
2022-10-20T17:46:00.868Z,21.02
2022-10-20T17:48:28.872Z,37.67
2022-10-20T17:51:00.083Z,24.65
2022-10-20T17:53:29.922Z,23.90
2022-10-20T17:56:00.967Z,25.67
2022-10-20T17:58:28.737Z,25.48
2022-10-20T18:00:57.256Z,22.73
2022-10-20T18:03:25.167Z,29.98
2022-10-20T18:05:52.840Z,24.08
2022-10-20T18:08:20.753Z,28.27
2022-10-20T18:10:50.039Z,25.52
2022-10-20T18:13:17.672Z,25.92
2022-10-20T18:15:45.546Z,25.63
2022-10-20T18:18:13.220Z,19.27
2022-10-20T18:20:40.898Z,26.27
2022-10-20T18:23:08.569Z,19.15
2022-10-20T18:25:36.197Z,21.20
2022-10-20T18:28:05.198Z,24.50
2022-10-20T18:30:32.847Z,28.25
2022-10-20T18:33:00.515Z,28.15
2022-10-20T18:35:28.148Z,21.83
2022-10-20T18:37:57.652Z,25.80
2022-10-20T18:40:25.363Z,21.50
2022-10-20T18:42:53.029Z,21.90
2022-10-20T18:45:25.154Z,19.88
2022-10-20T18:47:54.143Z,23.10
2022-10-20T18:50:21.949Z,21.30
2022-10-20T18:52:49.719Z,21.10
2022-10-20T18:55:17.426Z,23.92
2022-10-20T18:57:45.131Z,29.40
2022-10-20T19:00:13.182Z,26.08
2022-10-20T19:02:42.244Z,21.00
2022-10-20T19:05:10.152Z,25.35
2022-10-20T19:07:38.175Z,22.23
2022-10-20T19:10:06.211Z,23.98
2022-10-20T19:12:33.866Z,21.52
2022-10-20T19:15:01.541Z,25.35
2022-10-20T19:17:29.287Z,26.30
2022-10-20T19:19:58.179Z,21.85
2022-10-20T19:22:29.217Z,20.75
2022-10-20T19:24:57.182Z,23.35
2022-10-20T19:27:27.171Z,24.00
2022-10-20T19:29:55.821Z,31.38
2022-10-20T19:32:23.447Z,23.17
2022-10-20T19:34:51.133Z,26.80
2022-10-20T19:37:20.060Z,21.33
2022-10-20T19:39:47.753Z,21.48
2022-10-20T19:42:15.412Z,20.92
2022-10-20T19:44:43.118Z,17.20
2022-10-20T19:47:10.869Z,34.05
2022-10-20T19:49:38.796Z,22.20
2022-10-20T19:52:06.648Z,20.35
2022-10-20T19:54:35.850Z,19.40
2022-10-20T19:57:03.667Z,22.20
2022-10-20T19:59:31.334Z,22.00
2022-10-20T20:01:59.027Z,26.67
2022-10-20T20:04:26.697Z,18.77
2022-10-20T20:06:58.349Z,19.95
2022-10-20T20:09:29.914Z,20.63
2022-10-20T20:11:58.913Z,25.95
2022-10-20T20:14:26.633Z,24.58
2022-10-20T20:16:54.494Z,22.65
2022-10-20T20:19:22.195Z,25.83
2022-10-20T20:21:49.983Z,20.98
2022-10-20T20:24:17.685Z,16.92
2022-10-20T20:26:45.514Z,13.13
2022-10-20T20:29:14.530Z,15.68
2022-10-20T20:31:42.194Z,12.63
2022-10-20T20:34:28.375Z,16.13
2022-10-20T20:36:56.070Z,15.80
2022-10-20T20:39:24.063Z,19.98
2022-10-20T20:41:51.733Z,15.60
2022-10-20T20:44:20.758Z,15.55
2022-10-20T20:46:48.722Z,19.15
2022-10-20T20:49:16.425Z,19.73
2022-10-20T20:51:44.083Z,18.92
2022-10-20T20:54:12.101Z,20.27
2022-10-20T20:56:39.812Z,18.80
2022-10-20T20:59:07.458Z,14.07
2022-10-20T21:01:36.446Z,16.75
2022-10-20T21:04:05.713Z,12.90
2022-10-20T21:06:49.427Z,9.73
2022-10-20T21:09:21.186Z,20.23
2022-10-20T21:11:49.656Z,11.98
2022-10-20T21:14:17.360Z,12.50
2022-10-20T21:16:46.686Z,12.30
2022-10-20T21:19:14.405Z,14.07
2022-10-20T21:21:43.807Z,8.05
2022-10-20T21:24:12.333Z,12.88
2022-10-20T21:26:40.206Z,11.27
2022-10-20T21:29:07.929Z,15.23
2022-10-20T21:31:35.599Z,14.50
2022-10-20T21:34:05.680Z,11.55
2022-10-20T21:36:34.683Z,8.35
2022-10-20T21:39:02.531Z,7.80
2022-10-20T21:41:30.954Z,9.77
2022-10-20T21:44:00.388Z,8.85
2022-10-20T21:46:30.607Z,11.68
2022-10-20T21:48:59.664Z,10.70
2022-10-20T21:51:30.261Z,13.85
2022-10-20T21:53:58.367Z,10.40
2022-10-20T21:56:26.532Z,7.95
2022-10-20T21:58:54.838Z,11.98
2022-10-20T22:01:23.971Z,8.23
2022-10-20T22:03:54.019Z,11.82
2022-10-20T22:06:22.612Z,12.25
2022-10-20T22:08:52.513Z,12.02
2022-10-20T22:11:21.190Z,16.52
2022-10-20T22:13:49.466Z,9.48
2022-10-20T22:16:18.168Z,12.13
2022-10-20T22:18:46.265Z,8.57
2022-10-20T22:21:15.598Z,10.85
2022-10-20T22:23:43.730Z,12.32
2022-10-20T22:26:13.160Z,10.88
2022-10-20T22:28:41.160Z,9.77
2022-10-20T22:31:08.892Z,10.25
2022-10-20T22:33:36.767Z,10.30
2022-10-20T22:36:04.679Z,6.72
2022-10-20T22:38:32.610Z,14.82
2022-10-20T22:41:00.971Z,11.63
2022-10-20T22:43:31.089Z,13.05
2022-10-20T22:45:58.732Z,8.48
2022-10-20T22:48:26.647Z,11.07
2022-10-20T22:50:54.667Z,9.57
2022-10-20T22:53:23.254Z,10.55
2022-10-20T22:55:51.015Z,7.50
2022-10-20T22:58:18.779Z,17.02
2022-10-20T23:00:47.768Z,22.30
2022-10-20T23:03:15.511Z,6.28
2022-10-20T23:05:43.200Z,17.40
2022-10-20T23:08:10.852Z,6.40
2022-10-20T23:10:38.486Z,10.23
2022-10-20T23:13:06.718Z,6.57
2022-10-20T23:15:34.352Z,6.85
2022-10-20T23:18:03.260Z,8.73
2022-10-20T23:20:30.914Z,4.97
2022-10-20T23:22:58.579Z,16.08
2022-10-20T23:25:26.250Z,17.27
2022-10-20T23:27:53.928Z,5.82
2022-10-20T23:30:21.572Z,7.85
2022-10-20T23:32:49.241Z,14.02
2022-10-20T23:35:18.189Z,10.20
2022-10-20T23:37:47.044Z,7.90
2022-10-20T23:40:14.717Z,5.22
2022-10-20T23:42:42.331Z,7.85
2022-10-20T23:45:10.371Z,7.22
2022-10-20T23:47:38.303Z,7.70
2022-10-20T23:50:06.377Z,11.02
2022-10-20T23:52:35.622Z,6.85
2022-10-20T23:55:04.288Z,4.35
2022-10-20T23:57:31.916Z,5.25
2022-10-20T23:59:59.626Z,10.25
